The Bluffs, Vermont
Current Conditions -  °F | °C
As of 2:15 PM on Sunday 21 Dec 2014 (Local Time) from KEFK Reporting Station
Overcast Overcast  
Wind Chill:   Ceiling: 2200
Heat Index: 17°   Visibility: 7mi
Dew Point: 14°   Wind: 5mph
Humidity: 91%   Direction: 30°NNE
Pressure: 30.31"   Gusts: NA
Location:  44.9201°N, 72.2004°W
Report Text: KEFK 211915Z AUTO 03004KT 7SM BKN022 OVC027 M09/M10 A3031 RMK AO2 T10861098
Loading
Personal Weather Stations






























Interactive Weather Map New forecast layout! Learn more

10-Day Weather Forecast

Advertisements
Track Severe Weather on mobile